Allison, Pennsylvania
Current Conditions -  °F | °C
As of 12:53 PM on Sunday 23 Nov 2014 (Local Time) from KMGW Reporting Station
Few Clouds Few Clouds  
Wind Chill: 65°   Ceiling: Unl
Heat Index: 65°   Visibility: 10mi
Dew Point: 43°   Wind: 12mph
Humidity: 45%   Direction: 160°SSE
Pressure: 29.99"   Gusts: NA
Location:  39.99°N, 79.86°W
Report Text: KMGW 231753Z 16010KT 10SM FEW041 18/06 A2999 RMK AO2 SLP154 T01830061 10183 20094 56035
Loading
Personal Weather Stations






























Interactive Weather Map New forecast layout! Learn more

10-Day Weather Forecast

Advertisements
Track Severe Weather on mobile